Time;durP1;ratioP1;P1;durP2;ratioP2;P2;SDS_P1;SDS_P2;PMS_P1;PMS_P2;Temp;Humidity;BMP_temperature;BMP_pressure;BME280_temperature;BME280_humidity;BME280_pressure;Samples;Min_cycle;Max_cycle;Signal;HPM_P1;HPM_P2
2023/01/19 04:02:31;;;;;;;5.80;5.30;;;-2.10;87.80;;;;;;5157195;23;20994;-68
2023/01/19 04:04:57;;;;;;;6.23;5.67;;;-2.10;87.90;;;;;;4955287;28;20450;-67
2023/01/19 04:07:24;;;;;;;6.90;6.30;;;-2.00;87.90;;;;;;4958725;28;20451;-68
2023/01/19 04:09:50;;;;;;;7.83;6.33;;;-2.00;87.70;;;;;;4958576;28;20447;-68
2023/01/19 04:12:17;;;;;;;7.33;6.57;;;-2.10;87.80;;;;;;4958376;28;21026;-67
2023/01/19 04:14:44;;;;;;;6.47;5.13;;;-2.10;88.10;;;;;;4959091;28;20478;-67
2023/01/19 04:17:10;;;;;;;6.47;5.87;;;-2.10;87.80;;;;;;4958641;28;20532;-67
2023/01/19 04:19:38;;;;;;;5.87;5.40;;;-2.00;87.80;;;;;;4958540;28;20451;-67
2023/01/19 04:22:05;;;;;;;6.40;5.60;;;-1.80;87.40;;;;;;4958589;28;20481;-68
2023/01/19 04:24:32;;;;;;;5.97;5.33;;;-1.80;86.90;;;;;;4958471;28;20458;-67
2023/01/19 04:26:58;;;;;;;5.73;5.00;;;-1.70;86.60;;;;;;4958691;28;20443;-68
2023/01/19 04:29:25;;;;;;;6.40;5.80;;;-1.70;86.10;;;;;;4958542;28;20458;-68
2023/01/19 04:31:51;;;;;;;5.53;4.83;;;-1.60;86.20;;;;;;4958297;28;20529;-67
2023/01/19 04:34:18;;;;;;;6.37;5.77;;;-1.70;85.80;;;;;;4959077;28;20442;-67
2023/01/19 04:36:49;;;;;;;10.20;6.20;;;-1.60;86.10;;;;;;4958861;28;20498;-67
2023/01/19 04:39:16;;;;;;;6.50;5.90;;;-1.80;85.90;;;;;;4958805;28;20495;-67
2023/01/19 04:41:43;;;;;;;6.90;6.20;;;-1.70;86.30;;;;;;4958205;28;20463;-67
2023/01/19 04:44:10;;;;;;;6.47;5.53;;;-1.80;86.30;;;;;;4958101;28;20466;-68
2023/01/19 04:46:36;;;;;;;8.07;6.80;;;-1.80;86.40;;;;;;4957896;28;20501;-66
2023/01/19 04:49:03;;;;;;;6.43;5.83;;;-1.90;86.40;;;;;;4957989;28;20576;-68
2023/01/19 04:51:30;;;;;;;8.07;7.37;;;-1.80;86.90;;;;;;4957866;28;20474;-67
2023/01/19 04:53:58;;;;;;;6.53;5.60;;;-1.80;86.50;;;;;;4957623;28;21003;-68
2023/01/19 04:56:24;;;;;;;6.90;6.20;;;-1.70;86.20;;;;;;4957435;28;20514;-68
2023/01/19 04:58:51;;;;;;;6.20;5.50;;;-1.60;86.00;;;;;;4957768;28;20526;-67
2023/01/19 05:01:18;;;;;;;7.50;5.87;;;-1.80;85.60;;;;;;4957521;28;20530;-67
2023/01/19 05:03:44;;;;;;;6.93;6.33;;;-1.70;86.30;;;;;;4957707;28;20445;-68
2023/01/19 05:06:11;;;;;;;6.17;5.57;;;-1.80;86.00;;;;;;4957711;28;20447;-68
2023/01/19 05:08:38;;;;;;;6.40;5.80;;;-1.80;86.00;;;;;;4957352;28;20964;-69
2023/01/19 05:11:06;;;;;;;6.53;5.93;;;-1.80;86.00;;;;;;4957217;28;20992;-68
2023/01/19 05:13:33;;;;;;;6.73;6.10;;;-1.80;86.00;;;;;;4957592;28;20502;-67
2023/01/19 05:16:00;;;;;;;6.63;5.90;;;-1.80;86.10;;;;;;4957447;29;20581;-68
2023/01/19 05:18:27;;;;;;;6.33;5.73;;;-1.70;86.40;;;;;;4956569;28;20450;-68
2023/01/19 05:20:54;;;;;;;6.33;5.53;;;-1.70;85.70;;;;;;4957162;28;20883;-68
2023/01/19 05:23:20;;;;;;;5.83;5.33;;;-1.50;85.70;;;;;;4957492;28;20879;-67
2023/01/19 05:25:47;;;;;;;7.03;6.33;;;-1.40;85.20;;;;;;4957118;28;21021;-67
2023/01/19 05:28:15;;;;;;;6.10;5.50;;;-1.50;84.80;;;;;;4957318;28;20451;-68
2023/01/19 05:30:42;;;;;;;6.03;5.40;;;-1.60;84.80;;;;;;4957235;28;20479;-67
2023/01/19 05:33:08;;;;;;;5.70;5.20;;;-1.70;85.00;;;;;;4957180;28;20459;-68
2023/01/19 05:35:35;;;;;;;5.47;4.97;;;-1.70;85.30;;;;;;4957129;28;20459;-67
2023/01/19 05:38:02;;;;;;;6.13;5.53;;;-1.70;85.70;;;;;;4957113;28;20454;-67
2023/01/19 05:40:28;;;;;;;5.73;5.23;;;-1.80;85.60;;;;;;4957030;28;20462;-68
2023/01/19 05:42:59;;;;;;;5.90;5.30;;;-1.80;85.80;;;;;;4957043;28;20463;-68
2023/01/19 05:45:27;;;;;;;6.37;5.67;;;-1.70;85.70;;;;;;4957118;28;20442;-68
2023/01/19 05:47:54;;;;;;;5.27;4.77;;;-1.80;85.90;;;;;;4956849;28;20537;-68
2023/01/19 05:50:21;;;;;;;7.70;6.73;;;-1.80;85.80;;;;;;4956829;28;20455;-69
2023/01/19 05:52:47;;;;;;;6.30;5.70;;;-2.10;86.60;;;;;;4956902;28;20451;-67
2023/01/19 05:55:15;;;;;;;5.90;5.30;;;-2.20;87.10;;;;;;4956922;28;20458;-68
2023/01/19 05:57:42;;;;;;;5.67;5.13;;;-2.00;87.60;;;;;;4956400;28;20486;-67
2023/01/19 06:00:10;;;;;;;6.83;6.17;;;-1.90;87.10;;;;;;4956852;28;20550;-68
2023/01/19 06:02:38;;;;;;;5.60;5.10;;;-1.80;86.50;;;;;;4956417;28;20479;-67
2023/01/19 06:05:05;;;;;;;9.93;5.57;;;-1.80;86.10;;;;;;4956343;28;20461;-67
2023/01/19 06:07:32;;;;;;;6.20;5.60;;;-1.90;85.70;;;;;;4956775;28;20452;-66
2023/01/19 06:09:59;;;;;;;7.63;4.57;;;-1.80;86.00;;;;;;4956346;28;20868;-68
2023/01/19 06:12:25;;;;;;;5.80;4.70;;;-1.70;85.80;;;;;;4956585;28;20946;-68
2023/01/19 06:14:52;;;;;;;5.60;5.03;;;-1.70;85.40;;;;;;4956591;28;20452;-67
2023/01/19 06:17:19;;;;;;;5.80;5.13;;;-1.60;85.20;;;;;;4956483;28;20486;-68
2023/01/19 06:19:47;;;;;;;5.60;5.00;;;-1.50;85.20;;;;;;4956479;28;20447;-68
2023/01/19 06:22:13;;;;;;;5.23;4.40;;;-1.50;84.70;;;;;;4957191;28;20478;-67
2023/01/19 06:24:40;;;;;;;6.23;5.23;;;-1.50;84.50;;;;;;4956301;28;20451;-67
2023/01/19 06:27:07;;;;;;;5.90;5.10;;;-1.60;84.70;;;;;;4956424;28;20509;-68
2023/01/19 06:29:33;;;;;;;5.80;5.20;;;-1.70;84.90;;;;;;4956069;28;20505;-67
2023/01/19 06:32:00;;;;;;;5.93;5.10;;;-1.60;85.30;;;;;;4955924;28;21011;-68
2023/01/19 06:34:27;;;;;;;5.20;4.70;;;-1.60;85.10;;;;;;4956319;28;20458;-68
2023/01/19 06:36:55;;;;;;;5.30;4.80;;;-1.50;85.10;;;;;;4955980;28;20483;-67
2023/01/19 06:39:22;;;;;;;5.50;5.00;;;-1.30;84.50;;;;;;4955757;28;20689;-67
2023/01/19 06:41:49;;;;;;;6.43;4.97;;;-1.40;83.70;;;;;;4956037;28;20474;-67
2023/01/19 06:44:16;;;;;;;4.47;4.07;;;-1.40;84.30;;;;;;4955690;28;20966;-67
2023/01/19 06:46:42;;;;;;;5.37;4.87;;;-1.40;84.40;;;;;;4956035;28;20447;-67
2023/01/19 06:49:09;;;;;;;5.33;4.80;;;-1.40;83.80;;;;;;4955956;28;20521;-67
2023/01/19 06:51:36;;;;;;;5.83;5.23;;;-1.40;83.90;;;;;;4955388;28;20891;-68
2023/01/19 06:54:04;;;;;;;5.83;5.10;;;-1.40;84.30;;;;;;4955507;28;20898;-69
2023/01/19 06:56:31;;;;;;;5.00;4.60;;;-1.30;84.40;;;;;;4955544;28;20607;-69
2023/01/19 06:58:57;;;;;;;4.63;4.23;;;-1.20;84.30;;;;;;4955370;28;20454;-69
2023/01/19 07:01:24;;;;;;;4.70;4.30;;;-1.00;83.50;;;;;;4955275;28;20487;-69
2023/01/19 07:03:51;;;;;;;5.13;4.63;;;-0.90;82.90;;;;;;4955492;28;20451;-69
2023/01/19 07:06:18;;;;;;;4.70;4.30;;;-0.90;81.60;;;;;;4955451;28;20454;-69
2023/01/19 07:08:45;;;;;;;6.13;5.13;;;-1.00;81.60;;;;;;4955437;28;20537;-69
2023/01/19 07:11:13;;;;;;;6.20;4.50;;;-1.10;82.20;;;;;;4955381;28;20467;-68
2023/01/19 07:13:43;;;;;;;5.13;4.60;;;-0.90;82.40;;;;;;4955354;28;20459;-69
2023/01/19 07:16:12;;;;;;;4.83;4.33;;;-0.80;81.30;;;;;;4955637;28;20462;-67
2023/01/19 07:18:40;;;;;;;7.47;4.17;;;-1.10;81.10;;;;;;4955364;28;20518;-68
2023/01/19 07:21:07;;;;;;;4.47;4.07;;;-1.00;81.50;;;;;;4955212;28;20506;-68
2023/01/19 07:23:34;;;;;;;5.30;4.53;;;-1.00;81.30;;;;;;4955388;28;20462;-70
2023/01/19 07:26:01;;;;;;;5.33;4.30;;;-0.90;81.60;;;;;;4955363;28;20455;-70
2023/01/19 07:28:30;;;;;;;4.80;4.40;;;-0.90;81.30;;;;;;4955561;28;20490;-69
2023/01/19 07:30:57;;;;;;;4.77;4.27;;;-1.10;81.50;;;;;;4955453;28;20973;-68
2023/01/19 07:33:25;;;;;;;4.60;3.80;;;-1.10;85.50;;;;;;4955360;28;20501;-67
2023/01/19 07:35:52;;;;;;;5.30;4.80;;;-1.30;82.80;;;;;;4954881;28;20961;-68
2023/01/19 07:38:19;;;;;;;5.30;4.30;;;-1.50;83.20;;;;;;4954929;28;20490;-69
2023/01/19 07:40:46;;;;;;;4.50;4.10;;;-1.40;83.60;;;;;;4956782;28;20887;-69
2023/01/19 07:43:13;;;;;;;5.43;4.60;;;-1.20;83.10;;;;;;4959084;28;20999;-69
2023/01/19 07:45:42;;;;;;;5.03;4.53;;;-1.30;82.60;;;;;;4959118;28;20512;-68
2023/01/19 07:48:08;;;;;;;5.00;4.33;;;-1.20;82.60;;;;;;4959005;28;20443;-69
2023/01/19 07:50:35;;;;;;;4.90;4.03;;;-1.10;82.20;;;;;;4959134;28;20462;-67
2023/01/19 07:53:05;;;;;;;4.30;3.77;;;-0.90;82.00;;;;;;4958625;28;20826;-70
2023/01/19 07:55:31;;;;;;;4.20;3.20;;;-0.40;80.90;;;;;;4959175;28;20447;-70
2023/01/19 07:57:58;;;;;;;4.40;3.77;;;0.00;79.60;;;;;;4958796;28;20479;-68
2023/01/19 08:00:25;;;;;;;3.83;3.43;;;0.20;77.70;;;;;;4958721;28;20510;-68
2023/01/19 08:02:58;;;;;;;4.20;3.73;;;0.40;77.40;;;;;;4958449;28;20818;-68
2023/01/19 08:05:25;;;;;;;4.10;3.70;;;0.80;76.40;;;;;;4958727;28;20435;-68
2023/01/19 08:07:51;;;;;;;3.90;3.13;;;1.10;74.80;;;;;;4958335;28;20948;-68
2023/01/19 08:10:21;;;;;;;4.00;3.57;;;1.20;74.40;;;;;;4958607;28;20454;-68
2023/01/19 08:12:48;;;;;;;4.53;4.13;;;1.00;73.40;;;;;;4958577;28;20451;-68
2023/01/19 08:15:15;;;;;;;4.27;3.43;;;1.00;74.30;;;;;;4958463;28;20506;-68
2023/01/19 08:17:41;;;;;;;4.90;4.40;;;1.20;74.30;;;;;;4958350;28;20483;-68
2023/01/19 08:20:11;;;;;;;3.90;3.00;;;1.10;72.90;;;;;;4958462;28;20510;-68
2023/01/19 08:22:38;;;;;;;4.40;3.87;;;0.70;73.20;;;;;;4958328;28;20466;-68
2023/01/19 08:25:05;;;;;;;4.47;4.07;;;0.00;76.00;;;;;;4958512;28;20478;-68
2023/01/19 08:27:32;;;;;;;5.23;3.40;;;-0.10;77.00;;;;;;4958298;28;20454;-69
2023/01/19 08:29:58;;;;;;;4.37;3.97;;;-0.30;77.70;;;;;;4958267;28;20447;-67
2023/01/19 08:32:26;;;;;;;3.63;3.10;;;-0.50;78.20;;;;;;4958112;28;20556;-67
2023/01/19 08:34:52;;;;;;;4.97;4.47;;;-0.50;78.90;;;;;;4958145;28;20458;-68
2023/01/19 08:37:20;;;;;;;4.13;3.73;;;-0.70;78.90;;;;;;4957736;28;20487;-68
2023/01/19 08:39:47;;;;;;;4.07;3.70;;;-0.50;78.90;;;;;;4957934;28;20941;-69
2023/01/19 08:42:13;;;;;;;5.10;4.23;;;-0.30;79.00;;;;;;4957864;28;21016;-68
2023/01/19 08:44:40;;;;;;;4.20;3.13;;;0.20;78.80;;;;;;4958454;28;20459;-69
2023/01/19 08:47:07;;;;;;;4.93;4.53;;;0.60;76.80;;;;;;4958347;28;20447;-68
2023/01/19 08:49:34;;;;;;;4.17;3.57;;;0.60;75.50;;;;;;4957943;28;20459;-67
2023/01/19 08:52:01;;;;;;;3.63;3.30;;;0.50;75.90;;;;;;4957799;28;20475;-69
2023/01/19 08:54:30;;;;;;;4.87;4.47;;;0.60;76.20;;;;;;4957997;28;20462;-68
2023/01/19 08:56:56;;;;;;;4.00;3.63;;;0.70;76.20;;;;;;4957929;28;20518;-68
2023/01/19 08:59:23;;;;;;;4.90;4.40;;;0.80;75.70;;;;;;4957898;28;20799;-68
2023/01/19 09:01:49;;;;;;;4.80;4.40;;;1.00;75.80;;;;;;4957395;28;21074;-68
2023/01/19 09:04:16;;;;;;;5.30;4.80;;;0.90;74.80;;;;;;4957855;28;20861;-68
2023/01/19 09:06:43;;;;;;;5.83;3.80;;;1.00;75.20;;;;;;4958087;28;20455;-69
2023/01/19 09:09:10;;;;;;;4.30;3.80;;;1.20;75.00;;;;;;4957831;28;20458;-69
2023/01/19 09:11:37;;;;;;;4.10;3.70;;;1.10;74.50;;;;;;4957609;28;20526;-67
2023/01/19 09:14:04;;;;;;;4.00;3.60;;;1.40;74.30;;;;;;4958478;28;20514;-69
2023/01/19 09:16:31;;;;;;;4.87;3.40;;;1.50;74.00;;;;;;4958346;28;20813;-69
2023/01/19 09:18:58;;;;;;;6.93;3.80;;;1.70;73.60;;;;;;4957637;28;20899;-69
2023/01/19 09:21:25;;;;;;;4.43;4.00;;;1.90;73.40;;;;;;4957526;28;20554;-69
2023/01/19 09:23:53;;;;;;;6.50;3.97;;;1.70;72.30;;;;;;4957500;28;20577;-69
2023/01/19 09:26:21;;;;;;;3.40;2.97;;;1.70;73.70;;;;;;4957597;28;20830;-68
2023/01/19 09:28:49;;;;;;;4.00;3.33;;;1.50;73.60;;;;;;4957550;28;20495;-68
2023/01/19 09:31:16;;;;;;;5.13;3.60;;;1.20;74.50;;;;;;4957211;28;20476;-68
2023/01/19 09:33:42;;;;;;;4.30;3.60;;;1.30;74.60;;;;;;4956922;28;20946;-69
2023/01/19 09:36:09;;;;;;;4.30;3.77;;;1.40;74.80;;;;;;4957993;28;20463;-69
2023/01/19 09:38:37;;;;;;;4.10;3.40;;;1.40;74.20;;;;;;4957248;28;20482;-69
2023/01/19 09:41:04;;;;;;;3.93;3.20;;;1.20;75.40;;;;;;4957259;28;20881;-69
2023/01/19 09:43:37;;;;;;;3.30;3.00;;;1.40;76.10;;;;;;4957143;28;20494;-69
2023/01/19 09:46:11;;;;;;;6.67;3.40;;;1.50;75.20;;;;;;4957966;28;20450;-69
2023/01/19 09:48:47;;;;;;;4.40;3.40;;;1.20;76.60;;;;;;4957074;28;20514;-68
2023/01/19 09:51:18;;;;;;;3.60;3.20;;;1.30;76.70;;;;;;4956853;28;20470;-69
2023/01/19 09:54:04;;;;;;;5.73;4.07;;;1.00;76.60;;;;;;4956487;28;20431;-69
2023/01/19 09:56:32;;;;;;;3.50;3.00;;;1.00;77.40;;;;;;4956504;28;20878;-69
2023/01/19 09:59:00;;;;;;;3.53;2.97;;;1.30;77.40;;;;;;4957525;28;20533;-69
2023/01/19 10:01:44;;;;;;;3.37;2.90;;;1.40;76.20;;;;;;4957364;28;20486;-70
2023/01/19 10:04:34;;;;;;;3.13;2.83;;;1.30;75.50;;;;;;4956898;28;20481;-69
2023/01/19 10:07:11;;;;;;;3.63;3.10;;;1.00;76.50;;;;;;4957390;28;20435;-69
2023/01/19 10:09:48;;;;;;;4.23;3.83;;;1.10;77.40;;;;;;4956828;28;20439;-69
2023/01/19 10:12:29;;;;;;;4.37;3.07;;;1.30;76.40;;;;;;4956606;28;20471;-69
2023/01/19 10:15:03;;;;;;;4.93;3.43;;;1.00;76.50;;;;;;4957259;28;20432;-69
2023/01/19 10:17:41;;;;;;;4.73;3.53;;;0.90;76.90;;;;;;4956407;28;20479;-69
2023/01/19 10:20:14;;;;;;;3.53;3.23;;;0.70;77.00;;;;;;4956463;28;20506;-68
2023/01/19 10:22:43;;;;;;;3.80;3.33;;;0.60;77.60;;;;;;4956466;28;20471;-69
2023/01/19 10:25:15;;;;;;;3.57;3.17;;;0.40;77.90;;;;;;4956245;28;20551;-68
2023/01/19 10:27:42;;;;;;;3.40;3.03;;;0.30;78.30;;;;;;4956236;28;20428;-69
2023/01/19 10:30:15;;;;;;;4.10;3.37;;;0.30;78.40;;;;;;4955830;29;21007;-69
2023/01/19 10:32:44;;;;;;;3.33;3.03;;;0.40;78.60;;;;;;4955887;28;20471;-69
2023/01/19 10:35:20;;;;;;;3.57;2.63;;;0.40;78.60;;;;;;4956155;28;20451;-69
2023/01/19 10:37:47;;;;;;;3.13;2.67;;;0.50;78.50;;;;;;4955947;28;20506;-69
2023/01/19 10:40:25;;;;;;;3.90;2.93;;;0.60;78.30;;;;;;4956074;28;20451;-69
2023/01/19 10:42:51;;;;;;;4.17;3.13;;;0.80;78.70;;;;;;4955996;28;20519;-70
2023/01/19 10:45:21;;;;;;;3.90;3.50;;;0.90;77.70;;;;;;4956327;28;20551;-69
2023/01/19 10:47:51;;;;;;;4.70;2.80;;;1.00;77.30;;;;;;4955856;28;20455;-69
2023/01/19 10:50:30;;;;;;;3.03;2.73;;;1.20;77.70;;;;;;4955628;28;20968;-69
2023/01/19 10:52:58;;;;;;;3.27;2.90;;;1.40;77.50;;;;;;4955776;28;20889;-68
2023/01/19 10:55:28;;;;;;;3.73;2.90;;;1.60;76.40;;;;;;4955725;28;20827;-68
2023/01/19 10:57:56;;;;;;;3.27;2.97;;;1.60;75.80;;;;;;4956096;28;20506;-69
2023/01/19 11:00:32;;;;;;;3.37;2.63;;;1.60;75.50;;;;;;4955568;28;20498;-68
2023/01/19 11:03:01;;;;;;;3.40;2.57;;;1.70;75.50;;;;;;4955289;28;20932;-70
2023/01/19 11:05:30;;;;;;;5.30;2.70;;;1.70;75.40;;;;;;4955560;28;20486;-70
2023/01/19 11:07:57;;;;;;;4.17;2.90;;;1.80;75.90;;;;;;4955201;28;20852;-70
2023/01/19 11:10:25;;;;;;;3.30;2.70;;;1.60;75.70;;;;;;4955113;28;20941;-70
2023/01/19 11:12:59;;;;;;;3.97;3.27;;;1.70;76.60;;;;;;4955100;28;20945;-69
2023/01/19 11:15:32;;;;;;;3.90;2.93;;;1.60;76.00;;;;;;4954621;28;20463;-70
2023/01/19 11:18:01;;;;;;;3.07;2.77;;;1.60;76.70;;;;;;4955204;28;20467;-69
2023/01/19 11:20:31;;;;;;;4.10;3.07;;;1.50;76.40;;;;;;4955214;28;20505;-69
2023/01/19 11:23:06;;;;;;;3.70;3.30;;;1.50;76.70;;;;;;4955270;28;20459;-70
2023/01/19 11:25:35;;;;;;;3.57;2.97;;;1.70;77.20;;;;;;4955302;28;20460;-70
2023/01/19 11:28:02;;;;;;;3.83;3.10;;;1.90;77.30;;;;;;4955271;28;20439;-70
2023/01/19 11:30:30;;;;;;;3.10;2.63;;;2.00;75.70;;;;;;4955129;28;20452;-70
2023/01/19 11:32:57;;;;;;;3.60;2.80;;;2.20;75.40;;;;;;4954825;28;20518;-70
2023/01/19 11:35:39;;;;;;;3.10;2.80;;;2.30;74.60;;;;;;4955169;28;20454;-70
2023/01/19 11:38:07;;;;;;;3.13;2.53;;;2.40;75.20;;;;;;4955109;28;20485;-69
2023/01/19 11:40:35;;;;;;;2.77;2.23;;;2.50;74.20;;;;;;4955129;28;20459;-70
2023/01/19 11:43:02;;;;;;;3.20;2.73;;;2.70;75.30;;;;;;4955205;28;20467;-70
2023/01/19 11:45:31;;;;;;;3.50;2.93;;;3.00;75.10;;;;;;4955137;28;20502;-70
2023/01/19 11:47:57;;;;;;;3.67;2.50;;;3.20;73.70;;;;;;4954994;28;21010;-70
2023/01/19 11:50:31;;;;;;;2.43;2.03;;;3.40;72.80;;;;;;4955139;28;20502;-70
2023/01/19 11:53:04;;;;;;;3.23;2.93;;;3.60;72.40;;;;;;4955376;28;20436;-70
2023/01/19 11:55:37;;;;;;;3.20;2.47;;;3.40;72.60;;;;;;4955120;28;20440;-70
2023/01/19 11:58:05;;;;;;;2.93;2.63;;;3.40;72.90;;;;;;4955050;28;20470;-70
2023/01/19 12:00:36;;;;;;;3.77;2.77;;;3.20;72.10;;;;;;4956518;28;20451;-70
2023/01/19 12:03:11;;;;;;;4.53;3.10;;;3.20;73.30;;;;;;4956496;28;20435;-67
2023/01/19 12:05:41;;;;;;;3.10;2.77;;;3.40;73.30;;;;;;4956180;28;20415;-70
2023/01/19 12:08:14;;;;;;;4.13;3.10;;;3.40;72.90;;;;;;4956828;28;20442;-70
2023/01/19 12:10:44;;;;;;;3.27;2.97;;;3.30;72.40;;;;;;4955399;28;20999;-70
2023/01/19 12:13:21;;;;;;;3.53;3.23;;;3.10;72.70;;;;;;4955439;28;20449;-70
2023/01/19 12:15:51;;;;;;;2.90;2.57;;;2.90;73.30;;;;;;4955550;28;20466;-70
2023/01/19 12:18:21;;;;;;;5.00;3.50;;;2.70;74.50;;;;;;4955314;28;20487;-70
2023/01/19 12:20:51;;;;;;;3.73;3.43;;;2.60;75.50;;;;;;4955328;28;20482;-70
2023/01/19 12:23:29;;;;;;;3.57;3.27;;;2.50;76.40;;;;;;4956900;28;20542;-70
2023/01/19 12:26:06;;;;;;;3.10;2.80;;;2.60;75.70;;;;;;4956156;28;20510;-70
2023/01/19 12:28:37;;;;;;;3.80;2.57;;;2.70;76.20;;;;;;4959295;28;20442;-70
2023/01/19 12:31:04;;;;;;;3.20;2.83;;;2.80;75.20;;;;;;4959230;28;20470;-73
2023/01/19 12:33:35;;;;;;;3.67;3.33;;;2.80;74.90;;;;;;4958996;28;20458;-70
2023/01/19 12:36:05;;;;;;;3.10;2.70;;;2.70;75.50;;;;;;4958414;28;20522;-69
2023/01/19 12:38:46;;;;;;;5.60;3.20;;;2.60;75.30;;;;;;4958287;28;20479;-70
2023/01/19 12:41:20;;;;;;;5.43;3.30;;;2.50;75.50;;;;;;4958286;28;20550;-69
2023/01/19 12:43:48;;;;;;;3.23;2.93;;;2.50;76.30;;;;;;4958457;28;20485;-69
2023/01/19 12:46:27;;;;;;;4.03;2.80;;;2.60;76.30;;;;;;4958811;28;20451;-70
2023/01/19 12:48:54;;;;;;;3.90;2.90;;;2.30;76.10;;;;;;4958290;28;20909;-69
2023/01/19 12:51:25;;;;;;;3.07;2.77;;;2.30;77.80;;;;;;4958165;28;20809;-69
2023/01/19 12:53:55;;;;;;;2.93;2.63;;;2.50;77.60;;;;;;4957650;28;20459;-69
2023/01/19 12:56:29;;;;;;;3.10;2.80;;;2.60;76.60;;;;;;4957915;28;20560;-69
2023/01/19 12:58:56;;;;;;;3.17;2.43;;;2.50;76.30;;;;;;4957864;28;20478;-69
2023/01/19 13:01:23;;;;;;;2.80;2.50;;;2.60;77.10;;;;;;4957709;28;20491;-70
2023/01/19 13:04:02;;;;;;;3.30;2.83;;;2.50;76.00;;;;;;4957731;28;20455;-69
2023/01/19 13:07:09;;;;;;;2.90;2.33;;;2.30;76.80;;;;;;4957663;28;20486;-69
2023/01/19 13:09:38;;;;;;;2.87;2.60;;;2.40;78.10;;;;;;4949322;28;20459;-69
2023/01/19 13:12:22;;;;;;;2.80;2.33;;;2.50;77.40;;;;;;4957519;28;20459;-68
2023/01/19 13:14:50;;;;;;;4.80;2.60;;;2.50;77.10;;;;;;4957612;28;20445;-69
2023/01/19 13:17:26;;;;;;;2.80;2.33;;;2.40;77.00;;;;;;4957524;28;20527;-69
2023/01/19 13:20:24;;;;;;;3.43;2.67;;;2.40;78.40;;;;;;4957037;28;20481;-68
2023/01/19 13:23:20;;;;;;;2.80;2.43;;;2.50;78.50;;;;;;4958240;28;20499;-69
2023/01/19 13:25:52;;;;;;;3.33;2.70;;;2.70;78.10;;;;;;4957101;28;20909;-69
2023/01/19 13:28:23;;;;;;;2.90;2.50;;;2.80;77.60;;;;;;4957362;28;20443;-69
2023/01/19 13:30:58;;;;;;;3.07;2.70;;;2.90;77.30;;;;;;4957176;28;20472;-69
2023/01/19 13:33:28;;;;;;;3.30;2.40;;;2.80;76.80;;;;;;4957237;28;20430;-69
2023/01/19 13:35:57;;;;;;;2.60;2.00;;;2.70;75.90;;;;;;4957180;28;20451;-68
2023/01/19 13:38:25;;;;;;;3.30;2.80;;;2.60;76.80;;;;;;4956260;28;20566;-69
2023/01/19 13:40:56;;;;;;;3.43;2.60;;;2.60;77.50;;;;;;4957024;28;20470;-69
2023/01/19 13:43:28;;;;;;;3.00;2.50;;;2.70;77.00;;;;;;4957129;28;20442;-69
2023/01/19 13:45:56;;;;;;;3.00;2.47;;;2.60;77.20;;;;;;4956699;28;20882;-69
2023/01/19 13:48:24;;;;;;;3.60;1.90;;;2.60;77.40;;;;;;4956967;28;20485;-69
2023/01/19 13:51:02;;;;;;;3.93;3.03;;;2.60;77.10;;;;;;4956871;28;20482;-69
2023/01/19 13:53:30;;;;;;;3.20;2.70;;;2.60;78.30;;;;;;4956923;28;20485;-69
2023/01/19 13:56:09;;;;;;;3.70;2.43;;;2.70;77.90;;;;;;4956788;28;20490;-70
2023/01/19 13:58:36;;;;;;;5.57;2.60;;;2.80;77.00;;;;;;4956651;28;20895;-69
2023/01/19 14:01:03;;;;;;;2.80;2.20;;;2.70;77.00;;;;;;4956451;28;20542;-69
2023/01/19 14:03:29;;;;;;;3.47;2.43;;;2.70;77.20;;;;;;4956469;28;20438;-69
2023/01/19 14:05:56;;;;;;;3.30;2.57;;;2.70;77.40;;;;;;4956685;28;20462;-69
2023/01/19 14:08:24;;;;;;;2.80;2.50;;;2.90;77.30;;;;;;4956584;28;20455;-68
2023/01/19 14:11:01;;;;;;;3.10;2.33;;;2.70;77.10;;;;;;4956459;28;20471;-69
2023/01/19 14:13:31;;;;;;;3.50;2.80;;;2.70;77.30;;;;;;4956492;28;20454;-69
2023/01/19 14:15:59;;;;;;;3.70;2.50;;;2.60;77.70;;;;;;4956428;28;20458;-68
2023/01/19 14:18:28;;;;;;;4.03;3.00;;;2.50;77.80;;;;;;4956267;28;20455;-68
2023/01/19 14:21:00;;;;;;;3.00;2.70;;;2.60;78.20;;;;;;4956275;28;20530;-68
2023/01/19 14:23:45;;;;;;;2.70;2.20;;;2.70;77.80;;;;;;4956348;28;20977;-68
2023/01/19 14:26:41;;;;;;;3.10;2.00;;;2.60;78.70;;;;;;4956252;28;20445;-68
2023/01/19 14:29:23;;;;;;;2.83;2.20;;;2.80;77.70;;;;;;4956123;28;20542;-68
2023/01/19 14:31:52;;;;;;;3.73;2.40;;;2.90;77.40;;;;;;4956270;28;20529;-69
2023/01/19 14:34:32;;;;;;;3.77;2.30;;;2.90;76.90;;;;;;4956028;28;20479;-69
2023/01/19 14:37:00;;;;;;;3.50;2.20;;;2.80;76.80;;;;;;4956081;28;20451;-68
2023/01/19 14:39:29;;;;;;;2.60;1.93;;;2.70;76.90;;;;;;4955943;28;20538;-69
2023/01/19 14:41:58;;;;;;;5.40;2.43;;;2.80;77.70;;;;;;4955862;28;20486;-69
2023/01/19 14:44:31;;;;;;;2.83;2.50;;;3.00;77.70;;;;;;4955658;28;20949;-68
2023/01/19 14:46:58;;;;;;;2.57;2.13;;;3.10;77.40;;;;;;4955934;28;20486;-68
2023/01/19 14:49:31;;;;;;;2.77;2.10;;;3.20;76.50;;;;;;4955726;28;20458;-68
2023/01/19 14:51:59;;;;;;;2.10;1.73;;;3.20;76.40;;;;;;4955783;28;20561;-68
2023/01/19 14:54:33;;;;;;;3.27;2.57;;;3.20;76.20;;;;;;4955782;28;20460;-68
2023/01/19 14:56:59;;;;;;;3.13;1.90;;;3.10;76.10;;;;;;4955710;28;20450;-69
2023/01/19 14:59:27;;;;;;;4.00;2.40;;;3.10;76.50;;;;;;4955632;28;20561;-69
2023/01/19 15:01:54;;;;;;;2.30;2.10;;;3.10;76.90;;;;;;4955432;28;20505;-69
2023/01/19 15:04:22;;;;;;;2.70;2.40;;;3.00;76.20;;;;;;4956396;28;20952;-69
2023/01/19 15:06:48;;;;;;;3.17;1.90;;;3.00;76.30;;;;;;4956701;28;21047;-68
2023/01/19 15:09:15;;;;;;;2.97;1.60;;;3.00;76.00;;;;;;4957223;28;20459;-69
2023/01/19 15:11:44;;;;;;;2.40;1.83;;;3.10;76.50;;;;;;4956879;28;20471;-68
2023/01/19 15:14:13;;;;;;;3.73;2.43;;;3.10;76.30;;;;;;4957279;28;20459;-70
2023/01/19 15:16:41;;;;;;;2.60;1.80;;;3.00;76.40;;;;;;4956652;28;20431;-69
2023/01/19 15:19:14;;;;;;;2.53;1.80;;;3.10;76.70;;;;;;4956983;28;20498;-69
2023/01/19 15:21:41;;;;;;;2.70;1.90;;;3.20;76.30;;;;;;4957228;28;20847;-69
2023/01/19 15:24:09;;;;;;;2.33;1.83;;;3.10;76.10;;;;;;4956923;28;20478;-69
2023/01/19 15:26:37;;;;;;;3.27;2.10;;;3.20;76.20;;;;;;4956277;28;20443;-69
2023/01/19 15:29:14;;;;;;;3.03;1.90;;;3.30;76.10;;;;;;4956537;28;20944;-68
2023/01/19 15:31:42;;;;;;;2.53;1.80;;;3.40;75.60;;;;;;4956439;28;20482;-69
2023/01/19 15:34:11;;;;;;;3.13;1.93;;;3.50;75.60;;;;;;4957320;28;20455;-69
2023/01/19 15:36:38;;;;;;;3.57;1.63;;;3.50;75.70;;;;;;4956888;28;20462;-70
2023/01/19 15:39:05;;;;;;;2.60;1.80;;;3.60;75.20;;;;;;4956556;28;20493;-70
2023/01/19 15:41:32;;;;;;;2.37;1.97;;;3.70;75.10;;;;;;4956684;28;20475;-69
2023/01/19 15:43:59;;;;;;;3.17;1.90;;;3.70;75.20;;;;;;4956671;28;20439;-70
2023/01/19 15:46:26;;;;;;;3.17;1.90;;;3.60;74.40;;;;;;4955573;28;20470;-70
2023/01/19 15:48:54;;;;;;;2.73;2.07;;;3.30;74.80;;;;;;4955385;28;20974;-69
2023/01/19 15:51:23;;;;;;;3.03;2.73;;;3.30;75.50;;;;;;4955492;28;21015;-70
2023/01/19 15:53:50;;;;;;;3.67;2.57;;;3.50;75.60;;;;;;4955327;28;20549;-70
2023/01/19 15:56:19;;;;;;;3.20;2.10;;;3.40;75.10;;;;;;4956033;28;20462;-68
2023/01/19 15:58:47;;;;;;;2.50;1.90;;;3.20;75.60;;;;;;4955546;28;20905;-69
2023/01/19 16:01:15;;;;;;;3.40;2.23;;;3.20;76.20;;;;;;4955396;28;20486;-69
2023/01/19 16:03:42;;;;;;;2.10;1.60;;;3.30;76.40;;;;;;4958924;28;20449;-69
2023/01/19 16:06:11;;;;;;;3.00;1.93;;;3.30;76.20;;;;;;4958772;28;20451;-69
2023/01/19 16:08:38;;;;;;;2.17;1.70;;;3.10;76.40;;;;;;4958579;28;20968;-70
2023/01/19 16:11:06;;;;;;;2.13;1.47;;;3.00;76.40;;;;;;4958837;28;20459;-69
2023/01/19 16:13:33;;;;;;;2.90;1.80;;;2.90;77.60;;;;;;4958891;28;20472;-69
2023/01/19 16:16:03;;;;;;;4.90;2.57;;;3.00;77.70;;;;;;4956524;23;20507;-68
2023/01/19 16:18:30;;;;;;;2.40;1.73;;;3.00;77.20;;;;;;4939459;29;20444;-68
2023/01/19 16:20:57;;;;;;;2.67;1.90;;;3.10;77.00;;;;;;4938972;29;20993;-68
2023/01/19 16:23:25;;;;;;;2.90;2.40;;;3.20;76.60;;;;;;4939642;29;20458;-68
2023/01/19 16:25:56;;;;;;;3.00;1.73;;;3.20;76.60;;;;;;4939276;29;20467;-69
2023/01/19 16:28:23;;;;;;;4.60;1.80;;;3.20;77.00;;;;;;4939303;29;20486;-69
2023/01/19 16:30:50;;;;;;;3.47;2.50;;;3.20;76.50;;;;;;4938891;29;20507;-69
2023/01/19 16:33:17;;;;;;;3.30;2.40;;;3.30;76.50;;;;;;4941894;29;20483;-68
2023/01/19 16:35:44;;;;;;;2.53;1.90;;;3.40;76.50;;;;;;4940922;29;20475;-69
2023/01/19 16:38:10;;;;;;;2.80;2.37;;;3.50;76.20;;;;;;4941184;29;20455;-68
2023/01/19 16:40:38;;;;;;;2.83;2.10;;;3.60;75.90;;;;;;4940945;29;20483;-68
2023/01/19 16:43:05;;;;;;;2.30;1.90;;;3.50;75.80;;;;;;4941517;29;20972;-69
2023/01/19 16:45:32;;;;;;;2.70;1.90;;;3.60;75.90;;;;;;4941667;29;20476;-69
2023/01/19 16:47:59;;;;;;;2.20;1.90;;;3.60;75.80;;;;;;4941314;29;20856;-69
2023/01/19 16:50:25;;;;;;;2.57;2.10;;;3.60;75.70;;;;;;4941046;29;20455;-69
2023/01/19 16:52:56;;;;;;;2.50;2.00;;;3.60;75.40;;;;;;4940752;29;20463;-69
2023/01/19 16:55:22;;;;;;;2.77;1.80;;;3.60;75.40;;;;;;4940356;29;20532;-70
2023/01/19 16:57:51;;;;;;;2.40;1.83;;;3.40;75.90;;;;;;4940577;29;20456;-69
2023/01/19 17:00:18;;;;;;;2.80;2.10;;;3.40;76.00;;;;;;4940409;29;20491;-68
2023/01/19 17:02:45;;;;;;;2.60;2.17;;;3.40;76.10;;;;;;4940646;29;20499;-70
2023/01/19 17:05:13;;;;;;;2.63;2.00;;;3.30;75.90;;;;;;4939873;29;20476;-69